sensor_id;sensor_type;location;lat;lon;timestamp;pressure;altitude;pressure_sealevel;temperature;humidity
48874;BME280;66155;46.204;5.220;2023-04-15T00:02:14;97811.16;;;10.48;70.74
48874;BME280;66155;46.204;5.220;2023-04-15T00:07:14;97809.91;;;10.40;70.58
48874;BME280;66155;46.204;5.220;2023-04-15T00:12:15;97806.28;;;10.36;71.03
48874;BME280;66155;46.204;5.220;2023-04-15T00:17:16;97804.44;;;10.37;71.08
48874;BME280;66155;46.204;5.220;2023-04-15T00:22:17;97803.41;;;10.38;71.65
48874;BME280;66155;46.204;5.220;2023-04-15T00:27:18;97796.38;;;10.33;71.82
48874;BME280;66155;46.204;5.220;2023-04-15T00:32:18;97801.34;;;10.35;71.89
48874;BME280;66155;46.204;5.220;2023-04-15T00:37:19;97797.16;;;10.28;71.98
48874;BME280;66155;46.204;5.220;2023-04-15T00:42:19;97805.75;;;10.39;71.52
48874;BME280;66155;46.204;5.220;2023-04-15T00:47:21;97790.38;;;10.43;71.41
48874;BME280;66155;46.204;5.220;2023-04-15T00:52:22;97791.94;;;10.39;71.82
48874;BME280;66155;46.204;5.220;2023-04-15T00:57:22;97774.53;;;10.34;72.34
48874;BME280;66155;46.204;5.220;2023-04-15T01:02:23;97783.88;;;10.30;72.50
48874;BME280;66155;46.204;5.220;2023-04-15T01:07:23;97792.75;;;10.29;72.63
48874;BME280;66155;46.204;5.220;2023-04-15T01:12:25;97792.75;;;10.34;72.09
48874;BME280;66155;46.204;5.220;2023-04-15T01:17:26;97790.63;;;10.41;71.90
48874;BME280;66155;46.204;5.220;2023-04-15T01:22:27;97792.75;;;10.39;72.17
48874;BME280;66155;46.204;5.220;2023-04-15T01:27:28;97801.31;;;10.40;72.57
48874;BME280;66155;46.204;5.220;2023-04-15T01:32:29;97787.72;;;10.48;72.17
48874;BME280;66155;46.204;5.220;2023-04-15T01:37:30;97792.69;;;10.44;72.69
48874;BME280;66155;46.204;5.220;2023-04-15T01:42:31;97797.38;;;10.42;73.15
48874;BME280;66155;46.204;5.220;2023-04-15T01:47:31;97789.31;;;10.44;72.78
48874;BME280;66155;46.204;5.220;2023-04-15T01:52:32;97792.19;;;10.37;73.00
48874;BME280;66155;46.204;5.220;2023-04-15T01:57:33;97783.84;;;10.40;72.48
48874;BME280;66155;46.204;5.220;2023-04-15T02:02:34;97788.03;;;10.41;73.40
48874;BME280;66155;46.204;5.220;2023-04-15T02:07:35;97781.81;;;10.32;73.18
48874;BME280;66155;46.204;5.220;2023-04-15T02:12:35;97776.88;;;10.25;73.68
48874;BME280;66155;46.204;5.220;2023-04-15T02:17:36;97771.94;;;10.24;74.08
48874;BME280;66155;46.204;5.220;2023-04-15T02:22:37;97767.75;;;10.23;74.46
48874;BME280;66155;46.204;5.220;2023-04-15T02:27:37;97770.88;;;10.25;73.97
48874;BME280;66155;46.204;5.220;2023-04-15T02:32:37;97768.53;;;10.34;74.00
48874;BME280;66155;46.204;5.220;2023-04-15T02:37:38;97767.75;;;10.33;74.37
48874;BME280;66155;46.204;5.220;2023-04-15T02:42:44;97780.47;;;10.40;74.06
48874;BME280;66155;46.204;5.220;2023-04-15T02:47:45;97782.31;;;10.39;74.16
48874;BME280;66155;46.204;5.220;2023-04-15T02:52:46;97783.06;;;10.45;74.34
48874;BME280;66155;46.204;5.220;2023-04-15T02:57:46;97772.94;;;10.38;74.79
48874;BME280;66155;46.204;5.220;2023-04-15T03:02:47;97777.38;;;10.38;75.27
48874;BME280;66155;46.204;5.220;2023-04-15T03:07:51;97769.59;;;10.33;75.35
48874;BME280;66155;46.204;5.220;2023-04-15T03:12:52;97774.03;;;10.32;74.84
48874;BME280;66155;46.204;5.220;2023-04-15T03:17:52;97766.97;;;10.27;76.21
48874;BME280;66155;46.204;5.220;2023-04-15T03:22:52;97772.19;;;10.33;75.55
48874;BME280;66155;46.204;5.220;2023-04-15T03:27:53;97758.63;;;10.31;76.17
48874;BME280;66155;46.204;5.220;2023-04-15T03:32:53;97762.53;;;10.23;76.50
48874;BME280;66155;46.204;5.220;2023-04-15T03:37:54;97759.19;;;10.22;76.63
48874;BME280;66155;46.204;5.220;2023-04-15T03:42:54;97751.63;;;10.21;77.19
48874;BME280;66155;46.204;5.220;2023-04-15T03:47:55;97747.47;;;10.20;77.01
48874;BME280;66155;46.204;5.220;2023-04-15T03:52:55;97750.88;;;10.15;76.80
48874;BME280;66155;46.204;5.220;2023-04-15T03:57:56;97753.72;;;10.14;77.29
48874;BME280;66155;46.204;5.220;2023-04-15T04:02:56;97758.16;;;10.13;77.34
48874;BME280;66155;46.204;5.220;2023-04-15T04:07:57;97765.47;;;10.11;78.23
48874;BME280;66155;46.204;5.220;2023-04-15T04:12:57;97786.31;;;9.96;80.30
48874;BME280;66155;46.204;5.220;2023-04-15T04:17:58;97785.25;;;10.07;78.80
48874;BME280;66155;46.204;5.220;2023-04-15T04:22:58;97770.69;;;10.11;78.69
48874;BME280;66155;46.204;5.220;2023-04-15T04:27:59;97778.75;;;10.09;79.95
48874;BME280;66155;46.204;5.220;2023-04-15T04:32:59;97784.72;;;10.15;78.53
48874;BME280;66155;46.204;5.220;2023-04-15T04:38:00;97785.75;;;10.14;78.99
48874;BME280;66155;46.204;5.220;2023-04-15T04:43:00;97786.31;;;10.01;80.37
48874;BME280;66155;46.204;5.220;2023-04-15T04:48:01;97787.66;;;9.78;82.15
48874;BME280;66155;46.204;5.220;2023-04-15T04:53:01;97793.13;;;9.76;83.79
48874;BME280;66155;46.204;5.220;2023-04-15T04:58:02;97801.44;;;9.83;83.53
48874;BME280;66155;46.204;5.220;2023-04-15T05:03:03;97806.38;;;9.90;83.17
48874;BME280;66155;46.204;5.220;2023-04-15T05:08:04;97821.97;;;9.95;83.72
48874;BME280;66155;46.204;5.220;2023-04-15T05:13:04;97815.19;;;10.04;82.18
48874;BME280;66155;46.204;5.220;2023-04-15T05:18:05;97820.13;;;10.06;82.54
48874;BME280;66155;46.204;5.220;2023-04-15T05:23:06;97819.88;;;10.02;83.64
48874;BME280;66155;46.204;5.220;2023-04-15T05:28:07;97825.59;;;9.99;82.11
48874;BME280;66155;46.204;5.220;2023-04-15T05:33:07;97818.28;;;10.12;81.43
48874;BME280;66155;46.204;5.220;2023-04-15T05:38:08;97828.69;;;10.22;80.71
48874;BME280;66155;46.204;5.220;2023-04-15T05:43:08;97831.81;;;10.24;81.34
48874;BME280;66155;46.204;5.220;2023-04-15T05:48:09;97822.41;;;10.38;79.88
48874;BME280;66155;46.204;5.220;2023-04-15T05:53:10;97834.31;;;10.55;79.21
48874;BME280;66155;46.204;5.220;2023-04-15T05:58:10;97846.78;;;10.68;78.95
48874;BME280;66155;46.204;5.220;2023-04-15T06:03:11;97851.38;;;10.87;78.14
48874;BME280;66155;46.204;5.220;2023-04-15T06:08:12;97848.50;;;10.88;77.97
48874;BME280;66155;46.204;5.220;2023-04-15T06:13:13;97858.44;;;10.86;77.99
48874;BME280;66155;46.204;5.220;2023-04-15T06:18:13;97865.19;;;10.87;77.29
48874;BME280;66155;46.204;5.220;2023-04-15T06:23:13;97875.91;;;10.80;77.89
48874;BME280;66155;46.204;5.220;2023-04-15T06:28:14;97889.22;;;10.74;77.42
48874;BME280;66155;46.204;5.220;2023-04-15T06:33:15;97887.88;;;10.81;77.54
48874;BME280;66155;46.204;5.220;2023-04-15T06:38:15;97898.47;;;11.06;76.73
48874;BME280;66155;46.204;5.220;2023-04-15T06:43:16;97915.38;;;11.13;75.93
48874;BME280;66155;46.204;5.220;2023-04-15T06:48:16;97916.97;;;11.09;76.44
48874;BME280;66155;46.204;5.220;2023-04-15T06:53:17;97935.03;;;10.85;75.96
48874;BME280;66155;46.204;5.220;2023-04-15T06:58:18;97940.03;;;10.71;74.89
48874;BME280;66155;46.204;5.220;2023-04-15T07:03:19;97963.78;;;10.54;73.95
48874;BME280;66155;46.204;5.220;2023-04-15T07:08:20;97944.00;;;10.27;73.00
48874;BME280;66155;46.204;5.220;2023-04-15T07:13:20;97947.13;;;10.14;72.31
48874;BME280;66155;46.204;5.220;2023-04-15T07:18:20;97947.16;;;10.09;72.25
48874;BME280;66155;46.204;5.220;2023-04-15T07:23:21;97949.50;;;10.00;71.06
48874;BME280;66155;46.204;5.220;2023-04-15T07:28:21;97954.19;;;9.93;69.96
48874;BME280;66155;46.204;5.220;2023-04-15T07:33:22;97966.63;;;9.91;70.34
48874;BME280;66155;46.204;5.220;2023-04-15T07:38:22;97983.06;;;9.97;70.80
48874;BME280;66155;46.204;5.220;2023-04-15T07:43:23;98010.09;;;9.90;71.22
48874;BME280;66155;46.204;5.220;2023-04-15T07:48:24;98004.56;;;9.56;70.97
48874;BME280;66155;46.204;5.220;2023-04-15T07:53:24;98009.19;;;9.39;69.68
48874;BME280;66155;46.204;5.220;2023-04-15T07:58:25;98027.09;;;9.30;70.89
48874;BME280;66155;46.204;5.220;2023-04-15T08:03:26;98013.31;;;9.24;71.03
48874;BME280;66155;46.204;5.220;2023-04-15T08:08:27;98036.41;;;9.16;70.92
48874;BME280;66155;46.204;5.220;2023-04-15T08:13:27;98046.81;;;9.21;70.75
48874;BME280;66155;46.204;5.220;2023-04-15T08:18:28;98037.44;;;9.20;70.60
48874;BME280;66155;46.204;5.220;2023-04-15T08:23:28;98038.25;;;9.25;70.55
48874;BME280;66155;46.204;5.220;2023-04-15T08:28:29;98039.56;;;9.28;70.59
48874;BME280;66155;46.204;5.220;2023-04-15T08:33:29;98051.28;;;9.36;69.45
48874;BME280;66155;46.204;5.220;2023-04-15T08:38:30;98062.69;;;9.24;69.55
48874;BME280;66155;46.204;5.220;2023-04-15T08:43:33;98061.97;;;9.39;69.40
48874;BME280;66155;46.204;5.220;2023-04-15T08:48:37;98059.91;;;9.46;69.31
48874;BME280;66155;46.204;5.220;2023-04-15T08:53:37;98084.41;;;9.50;68.52
48874;BME280;66155;46.204;5.220;2023-04-15T08:58:38;98074.53;;;9.58;68.55
48874;BME280;66155;46.204;5.220;2023-04-15T09:03:38;98105.75;;;9.63;66.54
48874;BME280;66155;46.204;5.220;2023-04-15T09:08:39;98100.28;;;9.64;65.66
48874;BME280;66155;46.204;5.220;2023-04-15T09:13:40;98097.22;;;9.73;66.20
48874;BME280;66155;46.204;5.220;2023-04-15T09:18:40;98102.47;;;9.88;65.78
48874;BME280;66155;46.204;5.220;2023-04-15T09:23:54;98122.25;;;9.89;66.31
48874;BME280;66155;46.204;5.220;2023-04-15T09:29:03;98115.00;;;10.01;65.43
48874;BME280;66155;46.204;5.220;2023-04-15T09:34:04;98122.31;;;10.15;65.98
48874;BME280;66155;46.204;5.220;2023-04-15T09:39:05;98131.69;;;10.16;65.00
48874;BME280;66155;46.204;5.220;2023-04-15T09:44:06;98131.97;;;10.30;65.55
48874;BME280;66155;46.204;5.220;2023-04-15T09:49:08;98152.63;;;10.52;64.13
48874;BME280;66155;46.204;5.220;2023-04-15T09:54:08;98144.53;;;10.43;64.78
48874;BME280;66155;46.204;5.220;2023-04-15T09:59:09;98138.75;;;10.31;64.12
48874;BME280;66155;46.204;5.220;2023-04-15T10:04:10;98157.72;;;10.21;63.83
48874;BME280;66155;46.204;5.220;2023-04-15T10:09:11;98148.38;;;10.20;64.39
48874;BME280;66155;46.204;5.220;2023-04-15T10:14:13;98166.66;;;10.35;63.87
48874;BME280;66155;46.204;5.220;2023-04-15T10:19:18;98178.38;;;10.33;62.96
48874;BME280;66155;46.204;5.220;2023-04-15T10:24:23;98165.81;;;10.24;64.19
48874;BME280;66155;46.204;5.220;2023-04-15T10:29:24;98183.00;;;10.20;63.81
48874;BME280;66155;46.204;5.220;2023-04-15T10:34:26;98214.44;;;10.08;64.72
48874;BME280;66155;46.204;5.220;2023-04-15T10:39:39;98196.72;;;10.05;64.93
48874;BME280;66155;46.204;5.220;2023-04-15T10:44:42;98187.28;;;9.89;65.57
48874;BME280;66155;46.204;5.220;2023-04-15T10:49:46;98243.50;;;9.90;65.57
48874;BME280;66155;46.204;5.220;2023-04-15T10:54:47;98195.41;;;9.98;65.17
48874;BME280;66155;46.204;5.220;2023-04-15T11:05:00;98212.63;;;10.04;66.09
48874;BME280;66155;46.204;5.220;2023-04-15T11:10:02;98221.41;;;9.98;66.51
48874;BME280;66155;46.204;5.220;2023-04-15T11:20:31;98244.38;;;9.58;68.54
48874;BME280;66155;46.204;5.220;2023-04-15T11:25:33;98239.94;;;9.59;69.14
48874;BME280;66155;46.204;5.220;2023-04-15T11:30:35;98248.06;;;9.67;69.20
48874;BME280;66155;46.204;5.220;2023-04-15T11:35:36;98230.69;;;9.78;68.63
48874;BME280;66155;46.204;5.220;2023-04-15T11:40:37;98245.53;;;9.78;67.85
48874;BME280;66155;46.204;5.220;2023-04-15T11:45:56;98250.44;;;9.74;68.86
48874;BME280;66155;46.204;5.220;2023-04-15T11:51:01;98270.69;;;9.67;68.33
48874;BME280;66155;46.204;5.220;2023-04-15T11:56:02;98266.19;;;9.57;69.17
48874;BME280;66155;46.204;5.220;2023-04-15T12:01:04;98268.34;;;9.65;68.92
48874;BME280;66155;46.204;5.220;2023-04-15T12:11:08;98281.91;;;9.73;67.18
48874;BME280;66155;46.204;5.220;2023-04-15T12:16:08;98293.91;;;9.74;66.61
48874;BME280;66155;46.204;5.220;2023-04-15T12:21:09;98276.81;;;9.88;66.35
48874;BME280;66155;46.204;5.220;2023-04-15T12:26:10;98302.38;;;10.01;66.29
48874;BME280;66155;46.204;5.220;2023-04-15T12:31:11;98282.91;;;10.14;65.30
48874;BME280;66155;46.204;5.220;2023-04-15T12:36:12;98294.53;;;10.44;65.39
48874;BME280;66155;46.204;5.220;2023-04-15T12:41:13;98315.88;;;10.36;64.29
48874;BME280;66155;46.204;5.220;2023-04-15T12:46:13;98303.53;;;10.21;65.11
48874;BME280;66155;46.204;5.220;2023-04-15T12:51:14;98306.41;;;10.24;64.69
48874;BME280;66155;46.204;5.220;2023-04-15T12:56:15;98312.59;;;10.13;64.76
48874;BME280;66155;46.204;5.220;2023-04-15T13:01:19;98330.75;;;10.03;64.82
48874;BME280;66155;46.204;5.220;2023-04-15T13:06:20;98340.88;;;9.99;64.83
48874;BME280;66155;46.204;5.220;2023-04-15T13:11:24;98353.81;;;9.89;65.52
48874;BME280;66155;46.204;5.220;2023-04-15T13:16:25;98340.03;;;9.88;65.74
48874;BME280;66155;46.204;5.220;2023-04-15T13:21:25;98341.13;;;9.98;65.75
48874;BME280;66155;46.204;5.220;2023-04-15T13:26:26;98346.59;;;9.96;66.62
48874;BME280;66155;46.204;5.220;2023-04-15T13:31:27;98357.00;;;9.96;66.50
48874;BME280;66155;46.204;5.220;2023-04-15T13:36:27;98359.88;;;10.00;66.69
48874;BME280;66155;46.204;5.220;2023-04-15T13:41:28;98369.97;;;9.91;66.09
48874;BME280;66155;46.204;5.220;2023-04-15T13:46:28;98389.09;;;9.75;66.86
48874;BME280;66155;46.204;5.220;2023-04-15T13:51:28;98393.97;;;9.66;67.30
48874;BME280;66155;46.204;5.220;2023-04-15T13:56:30;98386.00;;;9.78;67.62
48874;BME280;66155;46.204;5.220;2023-04-15T14:01:30;98410.75;;;9.80;67.95
48874;BME280;66155;46.204;5.220;2023-04-15T14:06:31;98385.34;;;9.60;69.05
48874;BME280;66155;46.204;5.220;2023-04-15T14:11:31;98407.47;;;9.63;68.59
48874;BME280;66155;46.204;5.220;2023-04-15T14:16:34;98404.56;;;9.54;69.50
48874;BME280;66155;46.204;5.220;2023-04-15T14:21:35;98405.91;;;9.62;69.10
48874;BME280;66155;46.204;5.220;2023-04-15T14:26:35;98406.06;;;9.77;68.86
48874;BME280;66155;46.204;5.220;2023-04-15T14:31:36;98416.31;;;9.94;67.90
48874;BME280;66155;46.204;5.220;2023-04-15T14:36:37;98417.63;;;9.92;67.46
48874;BME280;66155;46.204;5.220;2023-04-15T14:41:37;98415.78;;;9.92;68.10
48874;BME280;66155;46.204;5.220;2023-04-15T14:46:38;98428.06;;;9.97;68.02
48874;BME280;66155;46.204;5.220;2023-04-15T14:51:40;98441.38;;;10.05;68.17
48874;BME280;66155;46.204;5.220;2023-04-15T14:56:40;98446.06;;;10.03;69.13
48874;BME280;66155;46.204;5.220;2023-04-15T15:01:41;98434.53;;;9.94;69.44
48874;BME280;66155;46.204;5.220;2023-04-15T15:06:41;98451.66;;;9.85;69.76
48874;BME280;66155;46.204;5.220;2023-04-15T15:11:42;98452.66;;;9.84;69.52
48874;BME280;66155;46.204;5.220;2023-04-15T15:16:42;98456.06;;;9.84;69.08
48874;BME280;66155;46.204;5.220;2023-04-15T15:21:43;98451.97;;;9.94;68.86
48874;BME280;66155;46.204;5.220;2023-04-15T15:26:43;98471.03;;;9.99;68.42
48874;BME280;66155;46.204;5.220;2023-04-15T15:31:44;98473.56;;;9.94;68.19
48874;BME280;66155;46.204;5.220;2023-04-15T15:36:44;98467.59;;;9.94;68.88
48874;BME280;66155;46.204;5.220;2023-04-15T15:41:45;98484.84;;;10.05;68.96
48874;BME280;66155;46.204;5.220;2023-04-15T15:46:45;98502.69;;;9.91;68.83
48874;BME280;66155;46.204;5.220;2023-04-15T15:51:46;98488.22;;;10.00;68.59
48874;BME280;66155;46.204;5.220;2023-04-15T15:56:46;98491.59;;;10.01;69.25
48874;BME280;66155;46.204;5.220;2023-04-15T16:01:47;98510.59;;;10.01;70.44
48874;BME280;66155;46.204;5.220;2023-04-15T16:06:48;98509.22;;;9.94;70.81
48874;BME280;66155;46.204;5.220;2023-04-15T16:11:48;98518.16;;;9.76;72.70
48874;BME280;66155;46.204;5.220;2023-04-15T16:16:49;98522.88;;;9.79;72.75
48874;BME280;66155;46.204;5.220;2023-04-15T16:21:49;98519.16;;;9.97;72.24
48874;BME280;66155;46.204;5.220;2023-04-15T16:26:50;98514.16;;;9.90;72.56
48874;BME280;66155;46.204;5.220;2023-04-15T16:31:50;98516.47;;;9.86;73.49
48874;BME280;66155;46.204;5.220;2023-04-15T16:36:51;98522.19;;;9.88;73.30
48874;BME280;66155;46.204;5.220;2023-04-15T16:41:52;98518.06;;;9.93;72.89
48874;BME280;66155;46.204;5.220;2023-04-15T16:46:52;98520.88;;;9.86;74.12
48874;BME280;66155;46.204;5.220;2023-04-15T16:51:53;98532.19;;;9.75;75.11
48874;BME280;66155;46.204;5.220;2023-04-15T16:56:55;98523.22;;;9.87;74.78
48874;BME280;66155;46.204;5.220;2023-04-15T17:01:56;98531.38;;;9.96;74.39
48874;BME280;66155;46.204;5.220;2023-04-15T17:06:57;98544.72;;;10.05;74.27
48874;BME280;66155;46.204;5.220;2023-04-15T17:11:57;98535.94;;;10.11;74.16
48874;BME280;66155;46.204;5.220;2023-04-15T17:16:58;98545.56;;;10.11;75.67
48874;BME280;66155;46.204;5.220;2023-04-15T17:21:59;98548.38;;;10.04;75.27
48874;BME280;66155;46.204;5.220;2023-04-15T17:27:00;98565.75;;;9.98;75.78
48874;BME280;66155;46.204;5.220;2023-04-15T17:32:00;98562.84;;;9.95;76.38
48874;BME280;66155;46.204;5.220;2023-04-15T17:37:02;98575.19;;;9.82;76.85
48874;BME280;66155;46.204;5.220;2023-04-15T17:42:02;98567.59;;;9.76;77.97
48874;BME280;66155;46.204;5.220;2023-04-15T17:47:03;98587.38;;;9.77;78.29
48874;BME280;66155;46.204;5.220;2023-04-15T17:52:03;98593.38;;;9.77;78.45
48874;BME280;66155;46.204;5.220;2023-04-15T17:57:04;98594.16;;;9.78;78.63
48874;BME280;66155;46.204;5.220;2023-04-15T18:02:06;98601.72;;;9.79;78.66
48874;BME280;66155;46.204;5.220;2023-04-15T18:07:06;98603.50;;;9.74;80.75
48874;BME280;66155;46.204;5.220;2023-04-15T18:12:07;98605.03;;;9.75;80.70
48874;BME280;66155;46.204;5.220;2023-04-15T18:17:08;98612.91;;;9.80;80.10
48874;BME280;66155;46.204;5.220;2023-04-15T18:22:08;98619.19;;;9.84;81.25
48874;BME280;66155;46.204;5.220;2023-04-15T18:27:09;98628.09;;;9.88;80.64
48874;BME280;66155;46.204;5.220;2023-04-15T18:32:09;98639.66;;;9.75;82.15
48874;BME280;66155;46.204;5.220;2023-04-15T18:37:10;98652.41;;;9.77;82.29
48874;BME280;66155;46.204;5.220;2023-04-15T18:42:10;98667.44;;;9.92;81.56
48874;BME280;66155;46.204;5.220;2023-04-15T18:47:11;98676.09;;;9.97;81.73
48874;BME280;66155;46.204;5.220;2023-04-15T18:52:11;98690.19;;;10.01;82.00
48874;BME280;66155;46.204;5.220;2023-04-15T18:57:12;98707.94;;;10.04;81.37
48874;BME280;66155;46.204;5.220;2023-04-15T19:02:12;98720.53;;;10.13;81.22
48874;BME280;66155;46.204;5.220;2023-04-15T19:07:12;98731.34;;;10.26;80.12
48874;BME280;66155;46.204;5.220;2023-04-15T19:12:13;98734.88;;;10.32;79.91
48874;BME280;66155;46.204;5.220;2023-04-15T19:17:14;98741.44;;;10.40;79.68
48874;BME280;66155;46.204;5.220;2023-04-15T19:22:14;98749.84;;;10.47;79.39
48874;BME280;66155;46.204;5.220;2023-04-15T19:27:15;98755.66;;;10.54;79.04
48874;BME280;66155;46.204;5.220;2023-04-15T19:32:16;98770.59;;;10.59;78.68
48874;BME280;66155;46.204;5.220;2023-04-15T19:37:16;98778.34;;;10.54;78.56
48874;BME280;66155;46.204;5.220;2023-04-15T19:42:17;98787.03;;;10.42;78.72
48874;BME280;66155;46.204;5.220;2023-04-15T19:47:17;98795.31;;;10.34;79.11
48874;BME280;66155;46.204;5.220;2023-04-15T19:52:18;98807.78;;;10.32;79.25
48874;BME280;66155;46.204;5.220;2023-04-15T19:57:18;98824.19;;;10.33;79.94
48874;BME280;66155;46.204;5.220;2023-04-15T20:02:19;98826.78;;;10.16;81.24
48874;BME280;66155;46.204;5.220;2023-04-15T20:07:19;98824.69;;;10.13;80.77
48874;BME280;66155;46.204;5.220;2023-04-15T20:12:19;98838.94;;;10.10;80.49
48874;BME280;66155;46.204;5.220;2023-04-15T20:17:20;98835.09;;;9.96;81.61
48874;BME280;66155;46.204;5.220;2023-04-15T20:22:21;98829.97;;;9.84;83.29
48874;BME280;66155;46.204;5.220;2023-04-15T20:27:21;98826.34;;;9.85;84.21
48874;BME280;66155;46.204;5.220;2023-04-15T20:32:21;98835.75;;;9.86;83.71
48874;BME280;66155;46.204;5.220;2023-04-15T20:37:23;98836.84;;;9.90;82.87
48874;BME280;66155;46.204;5.220;2023-04-15T20:42:23;98849.94;;;9.95;82.59
48874;BME280;66155;46.204;5.220;2023-04-15T20:47:24;98872.63;;;10.00;82.76
48874;BME280;66155;46.204;5.220;2023-04-15T20:52:24;98877.38;;;9.86;85.28
48874;BME280;66155;46.204;5.220;2023-04-15T20:57:25;98871.69;;;9.89;84.09
48874;BME280;66155;46.204;5.220;2023-04-15T21:02:25;98884.31;;;9.97;83.92
48874;BME280;66155;46.204;5.220;2023-04-15T21:07:26;98894.31;;;10.05;82.87
48874;BME280;66155;46.204;5.220;2023-04-15T21:12:26;98890.53;;;10.13;83.32
48874;BME280;66155;46.204;5.220;2023-04-15T21:17:26;98899.94;;;9.97;84.08
48874;BME280;66155;46.204;5.220;2023-04-15T21:22:27;98910.88;;;9.82;77.55
48874;BME280;66155;46.204;5.220;2023-04-15T21:27:27;98918.44;;;9.84;78.47
48874;BME280;66155;46.204;5.220;2023-04-15T21:32:28;98923.44;;;9.85;78.74
48874;BME280;66155;46.204;5.220;2023-04-15T21:37:29;98943.16;;;9.81;80.17
48874;BME280;66155;46.204;5.220;2023-04-15T21:42:30;98938.00;;;9.69;79.48
48874;BME280;66155;46.204;5.220;2023-04-15T21:47:30;98956.22;;;9.69;79.44
48874;BME280;66155;46.204;5.220;2023-04-15T21:52:30;98945.34;;;9.73;79.61
48874;BME280;66155;46.204;5.220;2023-04-15T21:57:31;98931.56;;;9.89;78.61
48874;BME280;66155;46.204;5.220;2023-04-15T22:02:33;98938.34;;;9.90;77.36
48874;BME280;66155;46.204;5.220;2023-04-15T22:07:33;98934.47;;;9.93;76.83
48874;BME280;66155;46.204;5.220;2023-04-15T22:12:35;98934.25;;;9.94;75.17
48874;BME280;66155;46.204;5.220;2023-04-15T22:17:35;98937.31;;;9.91;74.52
48874;BME280;66155;46.204;5.220;2023-04-15T22:22:36;98933.13;;;9.90;74.51
48874;BME280;66155;46.204;5.220;2023-04-15T22:27:36;98948.53;;;9.92;74.18
48874;BME280;66155;46.204;5.220;2023-04-15T22:32:36;98948.22;;;10.05;74.17
48874;BME280;66155;46.204;5.220;2023-04-15T22:37:37;98955.50;;;10.20;73.97
48874;BME280;66155;46.204;5.220;2023-04-15T22:42:37;98955.94;;;10.17;73.18
48874;BME280;66155;46.204;5.220;2023-04-15T22:47:38;98958.94;;;10.08;72.39
48874;BME280;66155;46.204;5.220;2023-04-15T22:52:38;98956.56;;;10.07;72.92
48874;BME280;66155;46.204;5.220;2023-04-15T22:57:39;98959.16;;;10.07;73.22
48874;BME280;66155;46.204;5.220;2023-04-15T23:02:39;98962.50;;;10.02;73.36
48874;BME280;66155;46.204;5.220;2023-04-15T23:07:40;98974.38;;;9.98;74.23
48874;BME280;66155;46.204;5.220;2023-04-15T23:12:40;98971.47;;;9.95;75.44
48874;BME280;66155;46.204;5.220;2023-04-15T23:17:41;98984.31;;;9.84;76.82
48874;BME280;66155;46.204;5.220;2023-04-15T23:22:42;98974.78;;;9.90;77.01
48874;BME280;66155;46.204;5.220;2023-04-15T23:27:42;98980.22;;;9.88;77.59
48874;BME280;66155;46.204;5.220;2023-04-15T23:32:43;98990.31;;;9.85;78.47
48874;BME280;66155;46.204;5.220;2023-04-15T23:37:46;98989.28;;;9.86;78.22
48874;BME280;66155;46.204;5.220;2023-04-15T23:42:46;99001.19;;;9.82;78.54
48874;BME280;66155;46.204;5.220;2023-04-15T23:47:46;98995.19;;;9.81;78.91
48874;BME280;66155;46.204;5.220;2023-04-15T23:52:47;99002.03;;;9.70;79.83
48874;BME280;66155;46.204;5.220;2023-04-15T23:57:47;99002.38;;;9.62;80.21
